CYYJ/YYJ METAR and TAF weather

Enter ICAO airport designator
Station Type Date Time Source
CYYJ METAR 2021/03/05 06:00 UTC NOAA

CYYJ 050600Z 13009KT 15SM -RA FEW008 SCT011 BKN027 OVC050 08/08 A2998 RMK SF1SC4SC2SC2 SF TR SLP154


Station Type Date Time Source
CYYJ Decoded METAR 2021/03/05 06:00 UTC NOAA

Victoria Int. Airport, B. C., Canada (CYYJ) 48-39N 123-26W 19M
Mar 05, 2021 - 01:00 AM EST / 2021.03.05 0600 UTC
Wind: from the SE (130 degrees) at 10 MPH (9 KT):0
Visibility: 15 mile(s):0
Sky conditions: overcast
Weather: light rain
Temperature: 46 F (8 C)
Dew Point: 46 F (8 C)
Relative Humidity: 100%
Pressure (altimeter): 29.98 in. Hg (1015 hPa)
ob: CYYJ 050600Z 13009KT 15SM -RA FEW008 SCT011 BKN027 OVC050 08/08 A2998 RMK SF1SC4SC2SC2 SF TR SLP154
cycle: 6

Station Type Date Time Source
CYYJ TAF 2021/03/05 06:39 UTC NOAA

TAF CYYJ 050538Z 0506/0606 13008KT P6SM -RA SCT006 SCT012 OVC030
TEMPO 0506/0512 5SM -SHRA BR BKN006 OVC012
FM051200 15008KT P6SM FEW010 BKN060 OVC140
TEMPO 0512/0515 P6SM -SHRA
FM051500 15012G22KT P6SM SCT030 OVC050
TEMPO 0515/0521 P6SM -SHRA
BECMG 0518/0520 21008KT
FM052100 21008KT P6SM SCT040
TEMPO 0521/0606 BKN040
BECMG 0604/0606 VRB03KT
RMK NXT FCST BY 051200Z

Example: see airport list